sensor_id;sensor_type;location;lat;lon;timestamp;pressure;altitude;pressure_sealevel;temperature
69785;BMP280;14177;51.520;6.764;2023-08-24T00:02:00;101528.91;;;18.97
69785;BMP280;14177;51.520;6.764;2023-08-24T00:04:28;101526.19;;;18.98
69785;BMP280;14177;51.520;6.764;2023-08-24T00:06:55;101517.50;;;18.96
69785;BMP280;14177;51.520;6.764;2023-08-24T00:09:22;101522.78;;;18.96
69785;BMP280;14177;51.520;6.764;2023-08-24T00:11:48;101518.53;;;18.94
69785;BMP280;14177;51.520;6.764;2023-08-24T00:14:15;101524.84;;;18.91
69785;BMP280;14177;51.520;6.764;2023-08-24T00:16:42;101525.81;;;18.89
69785;BMP280;14177;51.520;6.764;2023-08-24T00:19:09;101523.28;;;18.87
69785;BMP280;14177;51.520;6.764;2023-08-24T00:21:36;101523.34;;;18.86
69785;BMP280;14177;51.520;6.764;2023-08-24T00:24:03;101518.09;;;18.86
69785;BMP280;14177;51.520;6.764;2023-08-24T00:26:30;101516.50;;;18.83
69785;BMP280;14177;51.520;6.764;2023-08-24T00:28:57;101506.13;;;18.80
69785;BMP280;14177;51.520;6.764;2023-08-24T00:31:24;101505.25;;;18.80
69785;BMP280;14177;51.520;6.764;2023-08-24T00:33:51;101506.28;;;18.77
69785;BMP280;14177;51.520;6.764;2023-08-24T00:36:18;101511.56;;;18.77
69785;BMP280;14177;51.520;6.764;2023-08-24T00:38:46;101502.03;;;18.75
69785;BMP280;14177;51.520;6.764;2023-08-24T00:41:17;101507.38;;;18.73
69785;BMP280;14177;51.520;6.764;2023-08-24T00:43:44;101501.34;;;18.71
69785;BMP280;14177;51.520;6.764;2023-08-24T00:46:12;101510.16;;;18.70
69785;BMP280;14177;51.520;6.764;2023-08-24T00:48:40;101506.00;;;18.66
69785;BMP280;14177;51.520;6.764;2023-08-24T00:51:07;101496.56;;;18.62
69785;BMP280;14177;51.520;6.764;2023-08-24T00:53:36;101503.00;;;18.57
69785;BMP280;14177;51.520;6.764;2023-08-24T00:56:06;101497.03;;;18.53
69785;BMP280;14177;51.520;6.764;2023-08-24T00:58:34;101510.28;;;18.52
69785;BMP280;14177;51.520;6.764;2023-08-24T01:01:01;101508.59;;;18.51
69785;BMP280;14177;51.520;6.764;2023-08-24T01:03:28;101507.72;;;18.50
69785;BMP280;14177;51.520;6.764;2023-08-24T01:05:55;101500.91;;;18.46
69785;BMP280;14177;51.520;6.764;2023-08-24T01:08:24;101494.13;;;18.42
69785;BMP280;14177;51.520;6.764;2023-08-24T01:17:09;101480.19;;;18.40
69785;BMP280;14177;51.520;6.764;2023-08-24T01:19:42;101482.81;;;18.40
69785;BMP280;14177;51.520;6.764;2023-08-24T01:27:34;101495.13;;;18.40
69785;BMP280;14177;51.520;6.764;2023-08-24T01:30:05;101492.41;;;18.41
69785;BMP280;14177;51.520;6.764;2023-08-24T01:32:34;101495.97;;;18.40
69785;BMP280;14177;51.520;6.764;2023-08-24T01:35:05;101495.13;;;18.40
69785;BMP280;14177;51.520;6.764;2023-08-24T01:37:34;101501.25;;;18.40
69785;BMP280;14177;51.520;6.764;2023-08-24T01:40:06;101490.72;;;18.40
69785;BMP280;14177;51.520;6.764;2023-08-24T01:42:59;101478.34;;;18.42
69785;BMP280;14177;51.520;6.764;2023-08-24T01:45:29;101482.66;;;18.43
69785;BMP280;14177;51.520;6.764;2023-08-24T01:48:02;101473.06;;;18.42
69785;BMP280;14177;51.520;6.764;2023-08-24T01:50:30;101473.22;;;18.39
69785;BMP280;14177;51.520;6.764;2023-08-24T01:52:58;101468.13;;;18.36
69785;BMP280;14177;51.520;6.764;2023-08-24T01:55:25;101473.66;;;18.32
69785;BMP280;14177;51.520;6.764;2023-08-24T01:57:52;101478.03;;;18.32
69785;BMP280;14177;51.520;6.764;2023-08-24T02:00:19;101479.88;;;18.30
69785;BMP280;14177;51.520;6.764;2023-08-24T02:02:47;101476.50;;;18.28
69785;BMP280;14177;51.520;6.764;2023-08-24T02:05:14;101481.84;;;18.26
69785;BMP280;14177;51.520;6.764;2023-08-24T02:07:41;101475.84;;;18.23
69785;BMP280;14177;51.520;6.764;2023-08-24T02:10:08;101480.44;;;18.19
69785;BMP280;14177;51.520;6.764;2023-08-24T02:12:35;101466.59;;;18.16
69785;BMP280;14177;51.520;6.764;2023-08-24T02:15:02;101458.88;;;18.13
69785;BMP280;14177;51.520;6.764;2023-08-24T02:17:30;101461.56;;;18.11
69785;BMP280;14177;51.520;6.764;2023-08-24T02:19:57;101457.16;;;18.12
69785;BMP280;14177;51.520;6.764;2023-08-24T02:22:24;101451.91;;;18.12
69785;BMP280;14177;51.520;6.764;2023-08-24T02:24:51;101455.38;;;18.12
69785;BMP280;14177;51.520;6.764;2023-08-24T02:27:18;101452.84;;;18.11
69785;BMP280;14177;51.520;6.764;2023-08-24T02:29:45;101453.75;;;18.10
69785;BMP280;14177;51.520;6.764;2023-08-24T02:32:15;101460.78;;;18.09
69785;BMP280;14177;51.520;6.764;2023-08-24T02:34:42;101460.88;;;18.08
69785;BMP280;14177;51.520;6.764;2023-08-24T02:37:09;101455.63;;;18.08
69785;BMP280;14177;51.520;6.764;2023-08-24T02:39:36;101453.06;;;18.06
69785;BMP280;14177;51.520;6.764;2023-08-24T02:42:03;101445.25;;;18.05
69785;BMP280;14177;51.520;6.764;2023-08-24T02:44:30;101448.81;;;18.04
69785;BMP280;14177;51.520;6.764;2023-08-24T02:46:58;101458.31;;;18.06
69785;BMP280;14177;51.520;6.764;2023-08-24T02:49:25;101455.63;;;18.08
69785;BMP280;14177;51.520;6.764;2023-08-24T02:51:51;101456.44;;;18.08
69785;BMP280;14177;51.520;6.764;2023-08-24T02:54:19;101459.84;;;18.10
69785;BMP280;14177;51.520;6.764;2023-08-24T02:56:48;101464.28;;;18.10
69785;BMP280;14177;51.520;6.764;2023-08-24T02:59:15;101466.03;;;18.09
69785;BMP280;14177;51.520;6.764;2023-08-24T03:01:42;101467.06;;;18.07
69785;BMP280;14177;51.520;6.764;2023-08-24T03:04:10;101463.56;;;18.06
69785;BMP280;14177;51.520;6.764;2023-08-24T03:06:37;101458.31;;;18.06
69785;BMP280;14177;51.520;6.764;2023-08-24T03:09:04;101455.78;;;18.05
69785;BMP280;14177;51.520;6.764;2023-08-24T03:11:31;101449.50;;;18.07
69785;BMP280;14177;51.520;6.764;2023-08-24T03:13:58;101454.69;;;18.09
69785;BMP280;14177;51.520;6.764;2023-08-24T03:16:26;101450.22;;;18.11
69785;BMP280;14177;51.520;6.764;2023-08-24T03:18:53;101445.78;;;18.11
69785;BMP280;14177;51.520;6.764;2023-08-24T03:21:20;101449.13;;;18.15
69785;BMP280;14177;51.520;6.764;2023-08-24T03:23:48;101454.28;;;18.16
69785;BMP280;14177;51.520;6.764;2023-08-24T03:26:15;101454.22;;;18.18
69785;BMP280;14177;51.520;6.764;2023-08-24T03:28:43;101460.25;;;18.20
69785;BMP280;14177;51.520;6.764;2023-08-24T03:31:10;101463.63;;;18.22
69785;BMP280;14177;51.520;6.764;2023-08-24T03:33:37;101464.38;;;18.25
69785;BMP280;14177;51.520;6.764;2023-08-24T03:36:04;101468.59;;;18.28
69785;BMP280;14177;51.520;6.764;2023-08-24T03:38:31;101468.59;;;18.28
69785;BMP280;14177;51.520;6.764;2023-08-24T03:41:04;101473.84;;;18.28
69785;BMP280;14177;51.520;6.764;2023-08-24T03:43:35;101470.25;;;18.30
69785;BMP280;14177;51.520;6.764;2023-08-24T03:46:03;101475.41;;;18.32
69785;BMP280;14177;51.520;6.764;2023-08-24T03:48:33;101465.66;;;18.33
69785;BMP280;14177;51.520;6.764;2023-08-24T03:51:01;101462.88;;;18.36
69785;BMP280;14177;51.520;6.764;2023-08-24T03:53:28;101464.56;;;18.37
69785;BMP280;14177;51.520;6.764;2023-08-24T03:55:55;101463.56;;;18.40
69785;BMP280;14177;51.520;6.764;2023-08-24T03:58:22;101454.75;;;18.41
69785;BMP280;14177;51.520;6.764;2023-08-24T04:00:51;101440.56;;;18.43
69785;BMP280;14177;51.520;6.764;2023-08-24T04:03:18;101430.00;;;18.45
69785;BMP280;14177;51.520;6.764;2023-08-24T04:05:46;101428.81;;;18.50
69785;BMP280;14177;51.520;6.764;2023-08-24T04:08:13;101420.69;;;18.55
69785;BMP280;14177;51.520;6.764;2023-08-24T04:10:40;101428.22;;;18.61
69785;BMP280;14177;51.520;6.764;2023-08-24T04:13:07;101416.59;;;18.65
69785;BMP280;14177;51.520;6.764;2023-08-24T04:15:35;101419.94;;;18.68
69785;BMP280;14177;51.520;6.764;2023-08-24T04:18:03;101414.56;;;18.70
69785;BMP280;14177;51.520;6.764;2023-08-24T04:20:30;101403.81;;;18.74
69785;BMP280;14177;51.520;6.764;2023-08-24T04:22:58;101389.72;;;18.75
69785;BMP280;14177;51.520;6.764;2023-08-24T04:25:25;101384.28;;;18.78
69785;BMP280;14177;51.520;6.764;2023-08-24T04:27:52;101387.06;;;18.75
69785;BMP280;14177;51.520;6.764;2023-08-24T04:30:19;101391.66;;;18.72
69785;BMP280;14177;51.520;6.764;2023-08-24T04:32:46;101392.69;;;18.69
69785;BMP280;14177;51.520;6.764;2023-08-24T04:35:13;101384.78;;;18.69
69785;BMP280;14177;51.520;6.764;2023-08-24T04:37:40;101382.16;;;18.69
69785;BMP280;14177;51.520;6.764;2023-08-24T04:40:08;101377.72;;;18.70
69785;BMP280;14177;51.520;6.764;2023-08-24T04:42:35;101362.78;;;18.70
69785;BMP280;14177;51.520;6.764;2023-08-24T04:45:02;101352.94;;;18.74
69785;BMP280;14177;51.520;6.764;2023-08-24T04:47:29;101327.47;;;18.74
69785;BMP280;14177;51.520;6.764;2023-08-24T04:49:56;101316.19;;;18.72
69785;BMP280;14177;51.520;6.764;2023-08-24T04:52:23;101307.69;;;18.67
69785;BMP280;14177;51.520;6.764;2023-08-24T04:54:50;101314.91;;;18.64
69785;BMP280;14177;51.520;6.764;2023-08-24T04:57:17;101301.84;;;18.62
69785;BMP280;14177;51.520;6.764;2023-08-24T04:59:45;101296.75;;;18.59
69785;BMP280;14177;51.520;6.764;2023-08-24T05:02:12;101301.16;;;18.59
69785;BMP280;14177;51.520;6.764;2023-08-24T05:04:39;101302.00;;;18.59
69785;BMP280;14177;51.520;6.764;2023-08-24T05:07:06;101289.78;;;18.58
69785;BMP280;14177;51.520;6.764;2023-08-24T05:09:33;101294.88;;;18.61
69785;BMP280;14177;51.520;6.764;2023-08-24T05:12:00;101304.38;;;18.64
69785;BMP280;14177;51.520;6.764;2023-08-24T05:14:27;101299.97;;;18.64
69785;BMP280;14177;51.520;6.764;2023-08-24T05:16:54;101289.28;;;18.67
69785;BMP280;14177;51.520;6.764;2023-08-24T05:19:21;101291.75;;;18.70
69785;BMP280;14177;51.520;6.764;2023-08-24T05:21:48;101286.31;;;18.73
69785;BMP280;14177;51.520;6.764;2023-08-24T05:24:15;101286.91;;;18.78
69785;BMP280;14177;51.520;6.764;2023-08-24T05:26:42;101282.22;;;18.83
69785;BMP280;14177;51.520;6.764;2023-08-24T05:29:09;101282.97;;;18.85
69785;BMP280;14177;51.520;6.764;2023-08-24T05:31:36;101298.59;;;18.88
69785;BMP280;14177;51.520;6.764;2023-08-24T05:34:03;101316.94;;;18.90
69785;BMP280;14177;51.520;6.764;2023-08-24T05:36:30;101329.16;;;18.91
69785;BMP280;14177;51.520;6.764;2023-08-24T05:38:57;101335.94;;;18.95
69785;BMP280;14177;51.520;6.764;2023-08-24T05:41:27;101338.47;;;18.96
69785;BMP280;14177;51.520;6.764;2023-08-24T05:43:54;101349.78;;;18.98
69785;BMP280;14177;51.520;6.764;2023-08-24T05:46:21;101345.25;;;19.00
69785;BMP280;14177;51.520;6.764;2023-08-24T05:48:48;101348.84;;;18.99
69785;BMP280;14177;51.520;6.764;2023-08-24T05:51:15;101353.09;;;19.02
69785;BMP280;14177;51.520;6.764;2023-08-24T05:53:42;101350.19;;;19.06
69785;BMP280;14177;51.520;6.764;2023-08-24T05:56:09;101346.44;;;19.10
69785;BMP280;14177;51.520;6.764;2023-08-24T05:58:36;101345.19;;;19.17
69785;BMP280;14177;51.520;6.764;2023-08-24T06:01:03;101339.69;;;19.22
69785;BMP280;14177;51.520;6.764;2023-08-24T06:03:30;101341.97;;;19.28
69785;BMP280;14177;51.520;6.764;2023-08-24T06:06:04;101334.72;;;19.31
69785;BMP280;14177;51.520;6.764;2023-08-24T06:08:31;101334.53;;;19.34
69785;BMP280;14177;51.520;6.764;2023-08-24T06:10:59;101330.97;;;19.35
69785;BMP280;14177;51.520;6.764;2023-08-24T06:13:26;101333.59;;;19.35
69785;BMP280;14177;51.520;6.764;2023-08-24T06:15:53;101326.47;;;19.37
69785;BMP280;14177;51.520;6.764;2023-08-24T06:18:23;101332.31;;;19.42
69785;BMP280;14177;51.520;6.764;2023-08-24T06:20:50;101329.22;;;19.50
69785;BMP280;14177;51.520;6.764;2023-08-24T06:23:18;101327.84;;;19.58
69785;BMP280;14177;51.520;6.764;2023-08-24T06:25:45;101317.00;;;19.62
69785;BMP280;14177;51.520;6.764;2023-08-24T06:28:13;101323.69;;;19.68
69785;BMP280;14177;51.520;6.764;2023-08-24T06:30:41;101314.47;;;19.75
69785;BMP280;14177;51.520;6.764;2023-08-24T06:33:09;101313.94;;;19.84
69785;BMP280;14177;51.520;6.764;2023-08-24T06:35:38;101320.34;;;19.94
69785;BMP280;14177;51.520;6.764;2023-08-24T06:38:05;101316.44;;;20.01
69785;BMP280;14177;51.520;6.764;2023-08-24T06:40:32;101307.78;;;20.13
69785;BMP280;14177;51.520;6.764;2023-08-24T06:42:59;101307.84;;;20.25
69785;BMP280;14177;51.520;6.764;2023-08-24T06:45:26;101295.69;;;20.37
69785;BMP280;14177;51.520;6.764;2023-08-24T06:47:53;101292.44;;;20.46
69785;BMP280;14177;51.520;6.764;2023-08-24T06:50:21;101288.66;;;20.50
69785;BMP280;14177;51.520;6.764;2023-08-24T06:52:48;101283.13;;;20.54
69785;BMP280;14177;51.520;6.764;2023-08-24T06:55:15;101278.28;;;20.61
69785;BMP280;14177;51.520;6.764;2023-08-24T06:57:42;101283.09;;;20.68
69785;BMP280;14177;51.520;6.764;2023-08-24T07:00:09;101279.56;;;20.82
69785;BMP280;14177;51.520;6.764;2023-08-24T07:02:36;101278.78;;;20.93
69785;BMP280;14177;51.520;6.764;2023-08-24T07:05:04;101280.69;;;21.04
69785;BMP280;14177;51.520;6.764;2023-08-24T07:07:32;101284.53;;;21.12
69785;BMP280;14177;51.520;6.764;2023-08-24T07:09:59;101274.00;;;21.25
69785;BMP280;14177;51.520;6.764;2023-08-24T07:12:26;101274.75;;;21.39
69785;BMP280;14177;51.520;6.764;2023-08-24T07:14:53;101277.41;;;21.52
69785;BMP280;14177;51.520;6.764;2023-08-24T07:17:20;101280.09;;;21.64
69785;BMP280;14177;51.520;6.764;2023-08-24T07:19:47;101268.69;;;21.76
69785;BMP280;14177;51.520;6.764;2023-08-24T07:22:14;101263.25;;;21.90
69785;BMP280;14177;51.520;6.764;2023-08-24T07:24:41;101263.88;;;22.06
69785;BMP280;14177;51.520;6.764;2023-08-24T07:27:12;101248.81;;;22.19
69785;BMP280;14177;51.520;6.764;2023-08-24T07:29:39;101251.22;;;22.34
69785;BMP280;14177;51.520;6.764;2023-08-24T07:32:06;101249.53;;;22.46
69785;BMP280;14177;51.520;6.764;2023-08-24T07:34:33;101243.00;;;22.62
69785;BMP280;14177;51.520;6.764;2023-08-24T07:37:01;101234.75;;;22.78
69785;BMP280;14177;51.520;6.764;2023-08-24T07:39:28;101223.53;;;22.98
69785;BMP280;14177;51.520;6.764;2023-08-24T07:41:55;101213.03;;;23.20
69785;BMP280;14177;51.520;6.764;2023-08-24T07:44:23;101212.09;;;23.42
69785;BMP280;14177;51.520;6.764;2023-08-24T07:46:50;101218.03;;;23.68
69785;BMP280;14177;51.520;6.764;2023-08-24T07:49:17;101228.19;;;23.85
69785;BMP280;14177;51.520;6.764;2023-08-24T07:51:44;101243.16;;;24.08
69785;BMP280;14177;51.520;6.764;2023-08-24T07:54:11;101242.44;;;24.17
69785;BMP280;14177;51.520;6.764;2023-08-24T07:56:38;101250.00;;;24.32
69785;BMP280;14177;51.520;6.764;2023-08-24T07:59:05;101262.56;;;24.52
69785;BMP280;14177;51.520;6.764;2023-08-24T08:01:32;101271.88;;;24.78
69785;BMP280;14177;51.520;6.764;2023-08-24T08:03:59;101267.47;;;24.99
69785;BMP280;14177;51.520;6.764;2023-08-24T08:06:27;101258.47;;;25.22
69785;BMP280;14177;51.520;6.764;2023-08-24T08:08:54;101266.31;;;25.44
69785;BMP280;14177;51.520;6.764;2023-08-24T08:11:21;101258.63;;;25.71
69785;BMP280;14177;51.520;6.764;2023-08-24T08:13:48;101254.44;;;25.98
69785;BMP280;14177;51.520;6.764;2023-08-24T08:16:15;101248.38;;;26.26
69785;BMP280;14177;51.520;6.764;2023-08-24T08:18:42;101240.91;;;26.50
69785;BMP280;14177;51.520;6.764;2023-08-24T08:21:18;101236.31;;;26.80
69785;BMP280;14177;51.520;6.764;2023-08-24T08:23:48;101232.81;;;27.08
69785;BMP280;14177;51.520;6.764;2023-08-24T08:26:16;101225.25;;;27.23
69785;BMP280;14177;51.520;6.764;2023-08-24T08:28:43;101220.13;;;27.38
69785;BMP280;14177;51.520;6.764;2023-08-24T08:31:11;101222.81;;;27.38
69785;BMP280;14177;51.520;6.764;2023-08-24T08:33:38;101211.25;;;27.57
69785;BMP280;14177;51.520;6.764;2023-08-24T08:36:05;101207.38;;;27.88
69785;BMP280;14177;51.520;6.764;2023-08-24T08:38:32;101200.25;;;28.06
69785;BMP280;14177;51.520;6.764;2023-08-24T08:41:04;101203.25;;;28.30
69785;BMP280;14177;51.520;6.764;2023-08-24T08:43:31;101207.84;;;28.37
69785;BMP280;14177;51.520;6.764;2023-08-24T08:45:59;101218.44;;;28.47
69785;BMP280;14177;51.520;6.764;2023-08-24T08:48:30;101215.34;;;28.68
69785;BMP280;14177;51.520;6.764;2023-08-24T08:50:58;101207.94;;;28.62
69785;BMP280;14177;51.520;6.764;2023-08-24T08:53:26;101201.59;;;28.63
69785;BMP280;14177;51.520;6.764;2023-08-24T08:55:55;101204.03;;;28.74
69785;BMP280;14177;51.520;6.764;2023-08-24T08:58:25;101196.88;;;28.92
69785;BMP280;14177;51.520;6.764;2023-08-24T09:00:54;101191.09;;;29.22
69785;BMP280;14177;51.520;6.764;2023-08-24T09:03:21;101189.63;;;29.45
69785;BMP280;14177;51.520;6.764;2023-08-24T09:05:52;101178.69;;;29.64
69785;BMP280;14177;51.520;6.764;2023-08-24T09:08:20;101165.84;;;29.76
69785;BMP280;14177;51.520;6.764;2023-08-24T09:10:47;101165.75;;;29.93
69785;BMP280;14177;51.520;6.764;2023-08-24T09:13:15;101165.56;;;30.28
69785;BMP280;14177;51.520;6.764;2023-08-24T09:15:42;101153.03;;;30.52
69785;BMP280;14177;51.520;6.764;2023-08-24T09:18:09;101141.84;;;30.65
69785;BMP280;14177;51.520;6.764;2023-08-24T09:20:36;101128.78;;;30.70
69785;BMP280;14177;51.520;6.764;2023-08-24T09:23:04;101118.25;;;30.68
69785;BMP280;14177;51.520;6.764;2023-08-24T09:25:31;101108.53;;;30.67
69785;BMP280;14177;51.520;6.764;2023-08-24T09:28:03;101097.28;;;30.80
69785;BMP280;14177;51.520;6.764;2023-08-24T09:30:35;101087.56;;;30.79
69785;BMP280;14177;51.520;6.764;2023-08-24T09:33:10;101090.91;;;30.89
69785;BMP280;14177;51.520;6.764;2023-08-24T09:35:37;101087.53;;;31.11
69785;BMP280;14177;51.520;6.764;2023-08-24T09:38:21;101079.47;;;31.18
69785;BMP280;14177;51.520;6.764;2023-08-24T09:40:53;101070.41;;;31.19
69785;BMP280;14177;51.520;6.764;2023-08-24T09:43:22;101052.97;;;31.23
69785;BMP280;14177;51.520;6.764;2023-08-24T09:45:51;101055.47;;;31.25
69785;BMP280;14177;51.520;6.764;2023-08-24T09:48:19;101050.81;;;31.11
69785;BMP280;14177;51.520;6.764;2023-08-24T09:50:48;101056.16;;;31.03
69785;BMP280;14177;51.520;6.764;2023-08-24T09:53:23;101052.81;;;31.09
69785;BMP280;14177;51.520;6.764;2023-08-24T09:56:09;101048.25;;;31.25
69785;BMP280;14177;51.520;6.764;2023-08-24T09:58:36;101055.06;;;31.44
69785;BMP280;14177;51.520;6.764;2023-08-24T10:01:03;101059.84;;;31.56
69785;BMP280;14177;51.520;6.764;2023-08-24T10:03:32;101070.78;;;31.63
69785;BMP280;14177;51.520;6.764;2023-08-24T10:06:02;101080.28;;;31.73
69785;BMP280;14177;51.520;6.764;2023-08-24T10:08:43;101081.66;;;31.69
69785;BMP280;14177;51.520;6.764;2023-08-24T10:11:22;101079.44;;;31.73
69785;BMP280;14177;51.520;6.764;2023-08-24T10:14:19;101088.22;;;31.97
69785;BMP280;14177;51.520;6.764;2023-08-24T10:16:49;101078.47;;;32.27
69785;BMP280;14177;51.520;6.764;2023-08-24T10:19:17;101088.06;;;32.43
69785;BMP280;14177;51.520;6.764;2023-08-24T10:21:45;101099.38;;;32.39
69785;BMP280;14177;51.520;6.764;2023-08-24T10:24:15;101091.38;;;32.31
69785;BMP280;14177;51.520;6.764;2023-08-24T10:26:43;101090.41;;;32.24
69785;BMP280;14177;51.520;6.764;2023-08-24T10:29:10;101095.28;;;31.98
69785;BMP280;14177;51.520;6.764;2023-08-24T10:31:40;101082.44;;;31.78
69785;BMP280;14177;51.520;6.764;2023-08-24T10:34:08;101083.00;;;31.65
69785;BMP280;14177;51.520;6.764;2023-08-24T10:36:41;101083.50;;;31.69
69785;BMP280;14177;51.520;6.764;2023-08-24T10:39:08;101085.63;;;31.81
69785;BMP280;14177;51.520;6.764;2023-08-24T10:41:50;101090.09;;;31.89
69785;BMP280;14177;51.520;6.764;2023-08-24T10:44:33;101091.66;;;31.83
69785;BMP280;14177;51.520;6.764;2023-08-24T10:47:22;101088.63;;;31.86
69785;BMP280;14177;51.520;6.764;2023-08-24T10:52:25;101070.88;;;31.77
69785;BMP280;14177;51.520;6.764;2023-08-24T10:54:53;101079.78;;;31.70
69785;BMP280;14177;51.520;6.764;2023-08-24T10:57:37;101082.19;;;31.57
69785;BMP280;14177;51.520;6.764;2023-08-24T11:00:13;101067.31;;;31.38
69785;BMP280;14177;51.520;6.764;2023-08-24T11:02:48;101063.03;;;31.21
69785;BMP280;14177;51.520;6.764;2023-08-24T11:05:24;101068.25;;;31.15
69785;BMP280;14177;51.520;6.764;2023-08-24T11:08:00;101058.69;;;30.97
69785;BMP280;14177;51.520;6.764;2023-08-24T11:13:15;101041.81;;;30.72
69785;BMP280;14177;51.520;6.764;2023-08-24T11:15:47;101046.00;;;30.51
69785;BMP280;14177;51.520;6.764;2023-08-24T11:18:22;101036.97;;;30.36
69785;BMP280;14177;51.520;6.764;2023-08-24T11:20:55;101037.97;;;30.27
69785;BMP280;14177;51.520;6.764;2023-08-24T11:23:26;101028.44;;;30.16
69785;BMP280;14177;51.520;6.764;2023-08-24T11:25:55;101024.53;;;30.03
69785;BMP280;14177;51.520;6.764;2023-08-24T11:28:26;101022.03;;;30.01
69785;BMP280;14177;51.520;6.764;2023-08-24T11:30:55;101023.81;;;29.93
69785;BMP280;14177;51.520;6.764;2023-08-24T11:33:34;101020.78;;;29.88
69785;BMP280;14177;51.520;6.764;2023-08-24T11:36:04;101030.84;;;29.78
69785;BMP280;14177;51.520;6.764;2023-08-24T11:38:42;101036.63;;;29.58
69785;BMP280;14177;51.520;6.764;2023-08-24T11:41:17;101041.00;;;29.33
69785;BMP280;14177;51.520;6.764;2023-08-24T11:43:47;101054.31;;;29.17
69785;BMP280;14177;51.520;6.764;2023-08-24T11:46:18;101070.66;;;29.06
69785;BMP280;14177;51.520;6.764;2023-08-24T11:48:46;101075.56;;;28.93
69785;BMP280;14177;51.520;6.764;2023-08-24T11:51:13;101064.66;;;28.87
69785;BMP280;14177;51.520;6.764;2023-08-24T11:53:46;101057.09;;;28.82
69785;BMP280;14177;51.520;6.764;2023-08-24T11:56:14;101057.72;;;28.76
69785;BMP280;14177;51.520;6.764;2023-08-24T11:58:49;101052.84;;;28.72
69785;BMP280;14177;51.520;6.764;2023-08-24T12:01:17;101057.66;;;28.68
69785;BMP280;14177;51.520;6.764;2023-08-24T12:03:45;101055.03;;;28.76
69785;BMP280;14177;51.520;6.764;2023-08-24T12:06:16;101064.19;;;28.91
69785;BMP280;14177;51.520;6.764;2023-08-24T12:08:46;101061.94;;;29.04
69785;BMP280;14177;51.520;6.764;2023-08-24T12:11:20;101061.13;;;29.12
69785;BMP280;14177;51.520;6.764;2023-08-24T12:13:54;101047.75;;;29.12
69785;BMP280;14177;51.520;6.764;2023-08-24T12:16:22;101030.91;;;29.11
69785;BMP280;14177;51.520;6.764;2023-08-24T12:18:58;101027.06;;;29.14
69785;BMP280;14177;51.520;6.764;2023-08-24T12:21:32;101007.28;;;29.07
69785;BMP280;14177;51.520;6.764;2023-08-24T12:24:01;100996.22;;;29.02
69785;BMP280;14177;51.520;6.764;2023-08-24T12:26:33;100986.34;;;28.94
69785;BMP280;14177;51.520;6.764;2023-08-24T12:29:06;100973.59;;;28.88
69785;BMP280;14177;51.520;6.764;2023-08-24T12:31:34;100979.63;;;28.90
69785;BMP280;14177;51.520;6.764;2023-08-24T12:34:04;100968.56;;;28.85
69785;BMP280;14177;51.520;6.764;2023-08-24T12:36:37;100955.66;;;28.81
69785;BMP280;14177;51.520;6.764;2023-08-24T12:39:05;100932.41;;;28.73
69785;BMP280;14177;51.520;6.764;2023-08-24T12:41:34;100915.63;;;28.63
69785;BMP280;14177;51.520;6.764;2023-08-24T12:44:01;100911.91;;;28.56
69785;BMP280;14177;51.520;6.764;2023-08-24T12:46:36;100915.59;;;28.55
69785;BMP280;14177;51.520;6.764;2023-08-24T12:49:04;100924.41;;;28.48
69785;BMP280;14177;51.520;6.764;2023-08-24T12:51:31;100926.50;;;28.37
69785;BMP280;14177;51.520;6.764;2023-08-24T12:53:57;100905.69;;;28.23
69785;BMP280;14177;51.520;6.764;2023-08-24T12:56:25;100891.28;;;28.16
69785;BMP280;14177;51.520;6.764;2023-08-24T12:58:51;100884.94;;;28.17
69785;BMP280;14177;51.520;6.764;2023-08-24T13:01:18;100880.97;;;28.21
69785;BMP280;14177;51.520;6.764;2023-08-24T13:03:45;100886.66;;;28.26
69785;BMP280;14177;51.520;6.764;2023-08-24T13:06:12;100872.63;;;28.24
69785;BMP280;14177;51.520;6.764;2023-08-24T13:08:52;100887.91;;;28.14
69785;BMP280;14177;51.520;6.764;2023-08-24T13:11:21;100892.22;;;28.07
69785;BMP280;14177;51.520;6.764;2023-08-24T13:13:48;100903.19;;;28.04
69785;BMP280;14177;51.520;6.764;2023-08-24T13:16:15;100903.13;;;27.96
69785;BMP280;14177;51.520;6.764;2023-08-24T13:18:42;100909.31;;;27.79
69785;BMP280;14177;51.520;6.764;2023-08-24T13:21:10;100927.63;;;27.74
69785;BMP280;14177;51.520;6.764;2023-08-24T13:23:36;100917.78;;;27.74
69785;BMP280;14177;51.520;6.764;2023-08-24T13:26:03;100919.91;;;27.71
69785;BMP280;14177;51.520;6.764;2023-08-24T13:28:30;100923.31;;;27.63
69785;BMP280;14177;51.520;6.764;2023-08-24T13:30:57;100925.38;;;27.52
69785;BMP280;14177;51.520;6.764;2023-08-24T13:33:24;100927.69;;;27.47
69785;BMP280;14177;51.520;6.764;2023-08-24T13:35:51;100929.47;;;27.46
69785;BMP280;14177;51.520;6.764;2023-08-24T13:38:18;100926.38;;;27.51
69785;BMP280;14177;51.520;6.764;2023-08-24T13:40:45;100935.22;;;27.51
69785;BMP280;14177;51.520;6.764;2023-08-24T13:43:16;100935.91;;;27.53
69785;BMP280;14177;51.520;6.764;2023-08-24T13:45:43;100925.00;;;27.47
69785;BMP280;14177;51.520;6.764;2023-08-24T13:48:10;100943.00;;;27.45
69785;BMP280;14177;51.520;6.764;2023-08-24T13:50:37;100947.34;;;27.46
69785;BMP280;14177;51.520;6.764;2023-08-24T13:53:04;100929.19;;;27.49
69785;BMP280;14177;51.520;6.764;2023-08-24T13:55:31;100934.81;;;27.46
69785;BMP280;14177;51.520;6.764;2023-08-24T13:57:59;100934.28;;;27.43
69785;BMP280;14177;51.520;6.764;2023-08-24T14:00:26;100921.66;;;27.45
69785;BMP280;14177;51.520;6.764;2023-08-24T14:02:53;100924.84;;;27.48
69785;BMP280;14177;51.520;6.764;2023-08-24T14:05:20;100934.59;;;27.40
69785;BMP280;14177;51.520;6.764;2023-08-24T14:07:47;100932.06;;;27.38
69785;BMP280;14177;51.520;6.764;2023-08-24T14:10:15;100926.72;;;27.38
69785;BMP280;14177;51.520;6.764;2023-08-24T14:12:42;100924.63;;;27.42
69785;BMP280;14177;51.520;6.764;2023-08-24T14:15:10;100920.28;;;27.41
69785;BMP280;14177;51.520;6.764;2023-08-24T14:17:38;100924.22;;;27.37
69785;BMP280;14177;51.520;6.764;2023-08-24T14:20:06;100924.53;;;27.34
69785;BMP280;14177;51.520;6.764;2023-08-24T14:22:33;100918.66;;;27.30